Portada
METAR-TAF:

METAR-TAF

Aeroports :

Portorož, Eslovènia

latitud: 45-31N, longitud: 013-34E, altitud: 95 m

Observació

L'informe es va fer fa 39 minuts, a les 23:30 UTC
Vent 5 kt del Est/Sud-Est
Temperatura 24°C
Humitat 74%
Pressió 1016 hPa
Visibilitat 10 km o més

METAR: LJPZ 182330Z AUTO 12005KT 9999 NCD 24/19 Q1016

Hora: 02:09 (00:09 UTC)

Pronòstic

L'informe es va fer fa 1 hora i 9 minuts, a les 23:00 UTC
Pronòstic vàlid del 19 a les 00 UTC al 19 a les 09 UTC
Vent 6 kt del Est/Sud-Est
Visibilitat 10 km o més
sense núvols per sota de 1500 mi sense presència de cumulonimbus.

TAF: LJPZ 182300Z 1900/1909 12006KT CAVOK

Observacions i pronòstics meteorològics de més de 4000 aeroports (METAR i TAF).

Les estacions disponibles són els punts grocs i vermells al mapa.

Posi el ratolí al punt desitjat per veure el nom de l'estació.

Feu clic per veure les observacions i els pronòstics meteorològics.

Per canviar el mapa: feu clic els botons verds amb una creu de color negre per apropar; al botó verd amb un guió per allunyar la imatge; o en les fletxes verdes per a mapes adjacents.


METAR-TAF: